sensor_id;sensor_type;location;lat;lon;timestamp;temperature;humidity
42479;DHT22;28110;47.080;9.476;2022-12-18T00:01:50;0.30;99.90
42479;DHT22;28110;47.080;9.476;2022-12-18T00:04:20;0.30;99.90
42479;DHT22;28110;47.080;9.476;2022-12-18T00:06:46;0.20;99.90
42479;DHT22;28110;47.080;9.476;2022-12-18T00:09:12;0.30;99.90
42479;DHT22;28110;47.080;9.476;2022-12-18T00:11:37;0.30;99.90
42479;DHT22;28110;47.080;9.476;2022-12-18T00:14:03;0.30;99.90
42479;DHT22;28110;47.080;9.476;2022-12-18T00:16:29;0.20;99.90
42479;DHT22;28110;47.080;9.476;2022-12-18T00:19:01;0.30;99.90
42479;DHT22;28110;47.080;9.476;2022-12-18T00:21:27;0.20;99.90
42479;DHT22;28110;47.080;9.476;2022-12-18T00:23:54;0.20;99.90
42479;DHT22;28110;47.080;9.476;2022-12-18T00:26:23;0.20;99.90
42479;DHT22;28110;47.080;9.476;2022-12-18T00:28:49;0.30;99.90
42479;DHT22;28110;47.080;9.476;2022-12-18T00:31:18;0.30;99.90
42479;DHT22;28110;47.080;9.476;2022-12-18T00:33:44;0.30;99.90
42479;DHT22;28110;47.080;9.476;2022-12-18T00:36:12;0.40;99.90
42479;DHT22;28110;47.080;9.476;2022-12-18T00:38:38;0.30;99.90
42479;DHT22;28110;47.080;9.476;2022-12-18T00:41:05;0.30;99.90
42479;DHT22;28110;47.080;9.476;2022-12-18T00:43:34;0.30;99.90
42479;DHT22;28110;47.080;9.476;2022-12-18T00:45:59;0.30;99.90
42479;DHT22;28110;47.080;9.476;2022-12-18T00:48:25;0.30;99.90
42479;DHT22;28110;47.080;9.476;2022-12-18T00:50:51;0.30;99.90
42479;DHT22;28110;47.080;9.476;2022-12-18T00:53:17;0.20;99.90
42479;DHT22;28110;47.080;9.476;2022-12-18T00:55:43;0.20;99.90
42479;DHT22;28110;47.080;9.476;2022-12-18T00:58:10;0.10;99.90
42479;DHT22;28110;47.080;9.476;2022-12-18T01:00:37;0.20;99.90
42479;DHT22;28110;47.080;9.476;2022-12-18T01:03:03;0.10;99.90
42479;DHT22;28110;47.080;9.476;2022-12-18T01:05:29;0.10;99.90
42479;DHT22;28110;47.080;9.476;2022-12-18T01:07:55;0.00;99.90
42479;DHT22;28110;47.080;9.476;2022-12-18T01:10:21;0.10;99.90
42479;DHT22;28110;47.080;9.476;2022-12-18T01:12:47;0.10;99.90
42479;DHT22;28110;47.080;9.476;2022-12-18T01:15:13;0.10;99.90
42479;DHT22;28110;47.080;9.476;2022-12-18T01:17:39;0.00;99.90
42479;DHT22;28110;47.080;9.476;2022-12-18T01:20:06;-0.10;99.90
42479;DHT22;28110;47.080;9.476;2022-12-18T01:22:32;-0.10;99.90
42479;DHT22;28110;47.080;9.476;2022-12-18T01:24:57;-0.10;99.90
42479;DHT22;28110;47.080;9.476;2022-12-18T01:27:23;-0.10;99.90
42479;DHT22;28110;47.080;9.476;2022-12-18T01:29:49;-0.10;99.90
42479;DHT22;28110;47.080;9.476;2022-12-18T01:32:14;-0.10;99.90
42479;DHT22;28110;47.080;9.476;2022-12-18T01:34:40;-0.10;99.90
42479;DHT22;28110;47.080;9.476;2022-12-18T01:37:05;-0.20;99.90
42479;DHT22;28110;47.080;9.476;2022-12-18T01:39:31;-0.20;99.90
42479;DHT22;28110;47.080;9.476;2022-12-18T01:41:58;-0.20;99.90
42479;DHT22;28110;47.080;9.476;2022-12-18T01:47:25;-0.20;99.90
42479;DHT22;28110;47.080;9.476;2022-12-18T01:49:51;-0.10;99.90
42479;DHT22;28110;47.080;9.476;2022-12-18T01:52:17;-0.10;99.90
42479;DHT22;28110;47.080;9.476;2022-12-18T01:54:44;-0.10;99.90
42479;DHT22;28110;47.080;9.476;2022-12-18T01:57:10;-0.10;99.90
42479;DHT22;28110;47.080;9.476;2022-12-18T01:59:37;-0.10;99.90
42479;DHT22;28110;47.080;9.476;2022-12-18T02:02:04;-0.10;99.90
42479;DHT22;28110;47.080;9.476;2022-12-18T02:04:30;-0.20;99.90
42479;DHT22;28110;47.080;9.476;2022-12-18T02:09:50;-0.20;99.90
42479;DHT22;28110;47.080;9.476;2022-12-18T02:12:20;-0.10;99.90
42479;DHT22;28110;47.080;9.476;2022-12-18T02:15:13;-0.10;99.90
42479;DHT22;28110;47.080;9.476;2022-12-18T02:17:57;-0.10;99.90
42479;DHT22;28110;47.080;9.476;2022-12-18T02:20:36;-0.10;99.90
42479;DHT22;28110;47.080;9.476;2022-12-18T02:28:53;0.00;99.90
42479;DHT22;28110;47.080;9.476;2022-12-18T02:31:25;0.00;99.90
42479;DHT22;28110;47.080;9.476;2022-12-18T02:33:53;-0.10;99.90
42479;DHT22;28110;47.080;9.476;2022-12-18T02:36:22;-0.10;99.90
42479;DHT22;28110;47.080;9.476;2022-12-18T02:38:48;0.00;99.90
42479;DHT22;28110;47.080;9.476;2022-12-18T02:41:16;0.10;99.90
42479;DHT22;28110;47.080;9.476;2022-12-18T02:43:47;0.10;99.90
42479;DHT22;28110;47.080;9.476;2022-12-18T02:48:51;0.00;99.90
42479;DHT22;28110;47.080;9.476;2022-12-18T02:51:27;0.00;99.90
42479;DHT22;28110;47.080;9.476;2022-12-18T02:54:21;0.00;99.90
42479;DHT22;28110;47.080;9.476;2022-12-18T02:56:54;0.00;99.90
42479;DHT22;28110;47.080;9.476;2022-12-18T02:59:55;-0.10;99.90
42479;DHT22;28110;47.080;9.476;2022-12-18T03:02:35;-0.10;99.90
42479;DHT22;28110;47.080;9.476;2022-12-18T03:08:09;0.00;99.90
42479;DHT22;28110;47.080;9.476;2022-12-18T03:10:40;0.10;99.90
42479;DHT22;28110;47.080;9.476;2022-12-18T03:13:11;0.10;99.90
42479;DHT22;28110;47.080;9.476;2022-12-18T03:15:43;0.10;99.90
42479;DHT22;28110;47.080;9.476;2022-12-18T03:18:23;0.10;99.90
42479;DHT22;28110;47.080;9.476;2022-12-18T03:20:52;0.00;99.90
42479;DHT22;28110;47.080;9.476;2022-12-18T03:23:24;-0.10;99.90
42479;DHT22;28110;47.080;9.476;2022-12-18T03:25:53;-0.20;99.90
42479;DHT22;28110;47.080;9.476;2022-12-18T03:28:22;-0.20;99.90
42479;DHT22;28110;47.080;9.476;2022-12-18T03:30:50;-0.20;99.90
42479;DHT22;28110;47.080;9.476;2022-12-18T03:33:21;-0.10;99.90
42479;DHT22;28110;47.080;9.476;2022-12-18T03:35:49;-0.10;99.90
42479;DHT22;28110;47.080;9.476;2022-12-18T03:38:15;-0.10;99.90
42479;DHT22;28110;47.080;9.476;2022-12-18T03:41:28;-0.10;99.90
42479;DHT22;28110;47.080;9.476;2022-12-18T03:43:51;-0.10;99.90
42479;DHT22;28110;47.080;9.476;2022-12-18T03:46:30;-0.10;99.90
42479;DHT22;28110;47.080;9.476;2022-12-18T03:49:11;-0.20;99.90
42479;DHT22;28110;47.080;9.476;2022-12-18T03:51:52;-0.20;99.90
42479;DHT22;28110;47.080;9.476;2022-12-18T03:54:19;-0.30;99.90
42479;DHT22;28110;47.080;9.476;2022-12-18T03:56:48;-0.30;99.90
42479;DHT22;28110;47.080;9.476;2022-12-18T03:59:17;-0.40;99.90
42479;DHT22;28110;47.080;9.476;2022-12-18T04:01:49;-0.40;99.90
42479;DHT22;28110;47.080;9.476;2022-12-18T04:04:17;-0.30;99.90
42479;DHT22;28110;47.080;9.476;2022-12-18T04:06:45;-0.20;99.90
42479;DHT22;28110;47.080;9.476;2022-12-18T04:09:12;-0.20;99.90
42479;DHT22;28110;47.080;9.476;2022-12-18T04:11:38;-0.10;99.90
42479;DHT22;28110;47.080;9.476;2022-12-18T04:14:04;0.00;99.90
42479;DHT22;28110;47.080;9.476;2022-12-18T04:16:30;0.00;99.90
42479;DHT22;28110;47.080;9.476;2022-12-18T04:18:55;0.00;99.90
42479;DHT22;28110;47.080;9.476;2022-12-18T04:21:21;-0.10;99.90
42479;DHT22;28110;47.080;9.476;2022-12-18T04:23:48;0.00;99.90
42479;DHT22;28110;47.080;9.476;2022-12-18T04:26:13;0.00;99.90
42479;DHT22;28110;47.080;9.476;2022-12-18T04:28:39;-0.10;99.90
42479;DHT22;28110;47.080;9.476;2022-12-18T04:31:05;-0.10;99.90
42479;DHT22;28110;47.080;9.476;2022-12-18T04:33:30;-0.10;99.90
42479;DHT22;28110;47.080;9.476;2022-12-18T04:35:56;0.00;99.90
42479;DHT22;28110;47.080;9.476;2022-12-18T04:38:21;-0.10;99.90
42479;DHT22;28110;47.080;9.476;2022-12-18T04:40:47;0.00;99.90
42479;DHT22;28110;47.080;9.476;2022-12-18T04:43:12;0.10;99.90
42479;DHT22;28110;47.080;9.476;2022-12-18T04:45:38;0.10;99.90
42479;DHT22;28110;47.080;9.476;2022-12-18T04:48:04;0.10;99.90
42479;DHT22;28110;47.080;9.476;2022-12-18T04:50:30;0.10;99.90
42479;DHT22;28110;47.080;9.476;2022-12-18T04:52:55;0.00;99.90
42479;DHT22;28110;47.080;9.476;2022-12-18T04:55:21;0.00;99.90
42479;DHT22;28110;47.080;9.476;2022-12-18T04:57:47;-0.10;99.90
42479;DHT22;28110;47.080;9.476;2022-12-18T05:00:13;-0.10;99.90
42479;DHT22;28110;47.080;9.476;2022-12-18T05:02:39;-0.20;99.90
42479;DHT22;28110;47.080;9.476;2022-12-18T05:05:05;-0.20;99.90
42479;DHT22;28110;47.080;9.476;2022-12-18T05:07:30;-0.10;99.90
42479;DHT22;28110;47.080;9.476;2022-12-18T05:09:56;0.00;99.90
42479;DHT22;28110;47.080;9.476;2022-12-18T05:12:21;0.00;99.90
42479;DHT22;28110;47.080;9.476;2022-12-18T05:14:47;0.00;99.90
42479;DHT22;28110;47.080;9.476;2022-12-18T05:17:12;-0.10;99.90
42479;DHT22;28110;47.080;9.476;2022-12-18T05:19:38;-0.20;99.90
42479;DHT22;28110;47.080;9.476;2022-12-18T05:22:03;-0.20;99.90
42479;DHT22;28110;47.080;9.476;2022-12-18T05:24:29;-0.20;99.90
42479;DHT22;28110;47.080;9.476;2022-12-18T05:26:55;-0.30;99.90
42479;DHT22;28110;47.080;9.476;2022-12-18T05:29:20;-0.40;99.90
42479;DHT22;28110;47.080;9.476;2022-12-18T05:31:46;-0.40;99.90
42479;DHT22;28110;47.080;9.476;2022-12-18T05:34:11;-0.30;99.90
42479;DHT22;28110;47.080;9.476;2022-12-18T05:36:37;-0.40;99.90
42479;DHT22;28110;47.080;9.476;2022-12-18T05:39:03;-0.30;99.90
42479;DHT22;28110;47.080;9.476;2022-12-18T05:41:29;-0.10;99.90
42479;DHT22;28110;47.080;9.476;2022-12-18T05:43:54;0.00;99.90
42479;DHT22;28110;47.080;9.476;2022-12-18T05:46:20;0.00;99.90
42479;DHT22;28110;47.080;9.476;2022-12-18T05:48:46;0.10;99.90
42479;DHT22;28110;47.080;9.476;2022-12-18T05:51:15;0.10;99.90
42479;DHT22;28110;47.080;9.476;2022-12-18T05:53:42;0.10;99.90
42479;DHT22;28110;47.080;9.476;2022-12-18T05:56:11;0.10;99.90
42479;DHT22;28110;47.080;9.476;2022-12-18T05:58:37;0.10;99.90
42479;DHT22;28110;47.080;9.476;2022-12-18T06:01:17;0.10;99.90
42479;DHT22;28110;47.080;9.476;2022-12-18T06:03:43;0.00;99.90
42479;DHT22;28110;47.080;9.476;2022-12-18T06:06:20;0.00;99.90
42479;DHT22;28110;47.080;9.476;2022-12-18T06:08:46;0.10;99.90
42479;DHT22;28110;47.080;9.476;2022-12-18T06:11:12;0.10;99.90
42479;DHT22;28110;47.080;9.476;2022-12-18T06:13:38;0.20;99.90
42479;DHT22;28110;47.080;9.476;2022-12-18T06:16:04;0.30;99.90
42479;DHT22;28110;47.080;9.476;2022-12-18T06:18:31;0.20;99.90
42479;DHT22;28110;47.080;9.476;2022-12-18T06:20:57;0.10;99.90
42479;DHT22;28110;47.080;9.476;2022-12-18T06:23:23;0.00;99.90
42479;DHT22;28110;47.080;9.476;2022-12-18T06:25:49;0.10;99.90
42479;DHT22;28110;47.080;9.476;2022-12-18T06:28:14;0.10;99.90
42479;DHT22;28110;47.080;9.476;2022-12-18T06:30:42;0.00;99.90
42479;DHT22;28110;47.080;9.476;2022-12-18T06:33:08;0.00;99.90
42479;DHT22;28110;47.080;9.476;2022-12-18T06:35:34;0.00;99.90
42479;DHT22;28110;47.080;9.476;2022-12-18T06:38:01;0.00;99.90
42479;DHT22;28110;47.080;9.476;2022-12-18T06:40:27;0.10;99.90
42479;DHT22;28110;47.080;9.476;2022-12-18T06:42:53;0.10;99.90
42479;DHT22;28110;47.080;9.476;2022-12-18T06:45:18;0.10;99.90
42479;DHT22;28110;47.080;9.476;2022-12-18T06:47:44;0.20;99.90
42479;DHT22;28110;47.080;9.476;2022-12-18T06:50:09;0.30;99.90
42479;DHT22;28110;47.080;9.476;2022-12-18T06:52:35;0.30;99.90
42479;DHT22;28110;47.080;9.476;2022-12-18T06:55:02;0.20;99.90
42479;DHT22;28110;47.080;9.476;2022-12-18T06:57:27;0.20;99.90
42479;DHT22;28110;47.080;9.476;2022-12-18T06:59:53;0.20;99.90
42479;DHT22;28110;47.080;9.476;2022-12-18T07:02:18;0.10;99.90
42479;DHT22;28110;47.080;9.476;2022-12-18T07:04:44;0.10;99.90
42479;DHT22;28110;47.080;9.476;2022-12-18T07:07:09;0.20;99.90
42479;DHT22;28110;47.080;9.476;2022-12-18T07:09:35;0.30;99.90
42479;DHT22;28110;47.080;9.476;2022-12-18T07:12:00;0.30;99.90
42479;DHT22;28110;47.080;9.476;2022-12-18T07:14:26;0.40;99.90
42479;DHT22;28110;47.080;9.476;2022-12-18T07:16:52;0.30;99.90
42479;DHT22;28110;47.080;9.476;2022-12-18T07:19:17;0.30;99.90
42479;DHT22;28110;47.080;9.476;2022-12-18T07:21:43;0.30;99.90
42479;DHT22;28110;47.080;9.476;2022-12-18T07:24:08;0.20;99.90
42479;DHT22;28110;47.080;9.476;2022-12-18T07:26:34;0.10;99.90
42479;DHT22;28110;47.080;9.476;2022-12-18T07:28:59;0.10;99.90
42479;DHT22;28110;47.080;9.476;2022-12-18T07:31:25;0.10;99.90
42479;DHT22;28110;47.080;9.476;2022-12-18T07:33:52;0.20;99.90
42479;DHT22;28110;47.080;9.476;2022-12-18T07:36:18;0.30;99.90
42479;DHT22;28110;47.080;9.476;2022-12-18T07:38:46;0.40;99.90
42479;DHT22;28110;47.080;9.476;2022-12-18T07:41:13;0.40;99.90
42479;DHT22;28110;47.080;9.476;2022-12-18T07:43:40;0.50;99.90
42479;DHT22;28110;47.080;9.476;2022-12-18T07:46:06;0.60;99.90
42479;DHT22;28110;47.080;9.476;2022-12-18T07:48:32;0.70;99.90
42479;DHT22;28110;47.080;9.476;2022-12-18T07:51:02;0.70;99.90
42479;DHT22;28110;47.080;9.476;2022-12-18T07:53:28;0.60;99.90
42479;DHT22;28110;47.080;9.476;2022-12-18T07:56:05;0.50;99.90
42479;DHT22;28110;47.080;9.476;2022-12-18T07:58:30;0.60;99.90
42479;DHT22;28110;47.080;9.476;2022-12-18T08:01:07;0.60;99.90
42479;DHT22;28110;47.080;9.476;2022-12-18T08:03:33;0.70;99.90
42479;DHT22;28110;47.080;9.476;2022-12-18T08:06:03;0.80;99.90
42479;DHT22;28110;47.080;9.476;2022-12-18T08:08:30;0.90;99.90
42479;DHT22;28110;47.080;9.476;2022-12-18T08:10:56;1.00;99.90
42479;DHT22;28110;47.080;9.476;2022-12-18T08:13:22;0.90;99.90
42479;DHT22;28110;47.080;9.476;2022-12-18T08:16:15;0.90;99.90
42479;DHT22;28110;47.080;9.476;2022-12-18T08:18:41;0.90;99.90
42479;DHT22;28110;47.080;9.476;2022-12-18T08:21:11;0.90;99.90
42479;DHT22;28110;47.080;9.476;2022-12-18T08:23:37;0.80;99.90
42479;DHT22;28110;47.080;9.476;2022-12-18T08:26:03;0.80;99.90
42479;DHT22;28110;47.080;9.476;2022-12-18T08:28:28;0.80;99.90
42479;DHT22;28110;47.080;9.476;2022-12-18T08:30:54;0.90;99.90
42479;DHT22;28110;47.080;9.476;2022-12-18T08:33:19;0.80;99.90
42479;DHT22;28110;47.080;9.476;2022-12-18T08:35:45;0.90;99.90
42479;DHT22;28110;47.080;9.476;2022-12-18T08:38:10;1.00;99.90
42479;DHT22;28110;47.080;9.476;2022-12-18T08:40:36;1.20;99.90
42479;DHT22;28110;47.080;9.476;2022-12-18T08:43:01;1.30;99.90
42479;DHT22;28110;47.080;9.476;2022-12-18T08:45:45;1.40;99.90
42479;DHT22;28110;47.080;9.476;2022-12-18T08:48:11;1.40;99.90
42479;DHT22;28110;47.080;9.476;2022-12-18T08:50:37;1.50;99.90
42479;DHT22;28110;47.080;9.476;2022-12-18T08:53:02;1.40;99.90
42479;DHT22;28110;47.080;9.476;2022-12-18T08:55:28;1.40;99.90
42479;DHT22;28110;47.080;9.476;2022-12-18T08:57:54;1.40;99.90
42479;DHT22;28110;47.080;9.476;2022-12-18T09:00:20;1.50;99.90
42479;DHT22;28110;47.080;9.476;2022-12-18T09:02:45;1.50;99.90
42479;DHT22;28110;47.080;9.476;2022-12-18T09:05:11;1.50;99.90
42479;DHT22;28110;47.080;9.476;2022-12-18T09:07:36;1.60;99.90
42479;DHT22;28110;47.080;9.476;2022-12-18T09:10:02;1.70;99.90
42479;DHT22;28110;47.080;9.476;2022-12-18T09:12:28;1.70;99.90
42479;DHT22;28110;47.080;9.476;2022-12-18T09:14:54;1.70;99.90
42479;DHT22;28110;47.080;9.476;2022-12-18T09:17:19;1.70;99.90
42479;DHT22;28110;47.080;9.476;2022-12-18T09:19:45;1.70;99.90
42479;DHT22;28110;47.080;9.476;2022-12-18T09:22:10;1.60;99.90
42479;DHT22;28110;47.080;9.476;2022-12-18T09:24:36;1.60;99.90
42479;DHT22;28110;47.080;9.476;2022-12-18T09:27:02;1.60;99.90
42479;DHT22;28110;47.080;9.476;2022-12-18T09:29:27;1.60;99.90
42479;DHT22;28110;47.080;9.476;2022-12-18T09:31:53;1.70;99.90
42479;DHT22;28110;47.080;9.476;2022-12-18T09:34:19;1.70;99.90
42479;DHT22;28110;47.080;9.476;2022-12-18T09:36:47;1.70;99.90
42479;DHT22;28110;47.080;9.476;2022-12-18T09:39:12;1.70;99.90
42479;DHT22;28110;47.080;9.476;2022-12-18T09:41:44;1.90;99.90
42479;DHT22;28110;47.080;9.476;2022-12-18T09:47:04;2.50;99.90
42479;DHT22;28110;47.080;9.476;2022-12-18T09:49:35;2.80;99.90
42479;DHT22;28110;47.080;9.476;2022-12-18T09:52:17;2.90;99.90
42479;DHT22;28110;47.080;9.476;2022-12-18T09:54:58;3.00;99.90
42479;DHT22;28110;47.080;9.476;2022-12-18T09:57:25;2.90;99.90
42479;DHT22;28110;47.080;9.476;2022-12-18T10:00:04;2.70;99.90
42479;DHT22;28110;47.080;9.476;2022-12-18T10:02:30;2.70;99.90
42479;DHT22;28110;47.080;9.476;2022-12-18T10:05:10;2.60;99.90
42479;DHT22;28110;47.080;9.476;2022-12-18T10:13:14;2.80;99.90
42479;DHT22;28110;47.080;9.476;2022-12-18T10:21:43;3.00;99.90
42479;DHT22;28110;47.080;9.476;2022-12-18T10:24:23;3.10;99.90
42479;DHT22;28110;47.080;9.476;2022-12-18T10:26:49;3.10;99.90
42479;DHT22;28110;47.080;9.476;2022-12-18T10:29:16;3.30;99.90
42479;DHT22;28110;47.080;9.476;2022-12-18T10:31:42;3.30;99.90
42479;DHT22;28110;47.080;9.476;2022-12-18T10:34:14;3.30;99.90
42479;DHT22;28110;47.080;9.476;2022-12-18T10:36:40;3.30;99.90
42479;DHT22;28110;47.080;9.476;2022-12-18T10:39:21;3.30;99.90
42479;DHT22;28110;47.080;9.476;2022-12-18T10:41:49;3.30;99.90
42479;DHT22;28110;47.080;9.476;2022-12-18T10:44:18;3.30;99.90
42479;DHT22;28110;47.080;9.476;2022-12-18T10:46:47;3.20;99.90
42479;DHT22;28110;47.080;9.476;2022-12-18T10:49:26;3.10;99.90
42479;DHT22;28110;47.080;9.476;2022-12-18T10:52:14;3.10;99.90
42479;DHT22;28110;47.080;9.476;2022-12-18T10:54:49;3.20;99.90
42479;DHT22;28110;47.080;9.476;2022-12-18T10:57:37;3.30;99.90
42479;DHT22;28110;47.080;9.476;2022-12-18T11:00:22;3.30;99.90
42479;DHT22;28110;47.080;9.476;2022-12-18T11:02:49;3.30;99.90
42479;DHT22;28110;47.080;9.476;2022-12-18T11:07:50;3.40;99.90
42479;DHT22;28110;47.080;9.476;2022-12-18T11:10:20;3.00;99.90
42479;DHT22;28110;47.080;9.476;2022-12-18T11:12:47;2.70;99.90
42479;DHT22;28110;47.080;9.476;2022-12-18T11:15:23;2.40;99.90
42479;DHT22;28110;47.080;9.476;2022-12-18T11:17:50;2.20;99.90
42479;DHT22;28110;47.080;9.476;2022-12-18T11:20:35;2.10;99.90
42479;DHT22;28110;47.080;9.476;2022-12-18T11:23:04;2.10;99.90
42479;DHT22;28110;47.080;9.476;2022-12-18T11:25:32;1.90;99.90
42479;DHT22;28110;47.080;9.476;2022-12-18T11:28:01;1.80;99.90
42479;DHT22;28110;47.080;9.476;2022-12-18T11:36:01;1.70;99.90
42479;DHT22;28110;47.080;9.476;2022-12-18T11:38:39;1.70;99.90
42479;DHT22;28110;47.080;9.476;2022-12-18T11:41:29;1.60;99.90
42479;DHT22;28110;47.080;9.476;2022-12-18T11:44:53;1.60;99.90
42479;DHT22;28110;47.080;9.476;2022-12-18T11:47:48;1.60;99.90
42479;DHT22;28110;47.080;9.476;2022-12-18T11:52:54;1.50;99.90
42479;DHT22;28110;47.080;9.476;2022-12-18T11:58:52;1.40;99.90
42479;DHT22;28110;47.080;9.476;2022-12-18T12:01:36;1.40;99.90
42479;DHT22;28110;47.080;9.476;2022-12-18T12:07:12;1.20;99.90
42479;DHT22;28110;47.080;9.476;2022-12-18T12:13:15;1.10;99.90
42479;DHT22;28110;47.080;9.476;2022-12-18T12:18:22;1.00;99.90
42479;DHT22;28110;47.080;9.476;2022-12-18T12:21:10;0.90;99.90
42479;DHT22;28110;47.080;9.476;2022-12-18T12:23:59;0.70;99.90
42479;DHT22;28110;47.080;9.476;2022-12-18T12:26:38;0.70;99.90
42479;DHT22;28110;47.080;9.476;2022-12-18T12:38:16;0.60;99.90
42479;DHT22;28110;47.080;9.476;2022-12-18T12:41:04;0.60;99.90
42479;DHT22;28110;47.080;9.476;2022-12-18T12:43:40;0.40;99.90
42479;DHT22;28110;47.080;9.476;2022-12-18T12:46:09;0.40;99.90
42479;DHT22;28110;47.080;9.476;2022-12-18T12:51:22;0.30;99.90
42479;DHT22;28110;47.080;9.476;2022-12-18T12:53:49;0.20;99.90
42479;DHT22;28110;47.080;9.476;2022-12-18T12:56:17;0.20;99.90
42479;DHT22;28110;47.080;9.476;2022-12-18T13:01:48;0.20;99.90
42479;DHT22;28110;47.080;9.476;2022-12-18T13:04:27;0.10;99.90
42479;DHT22;28110;47.080;9.476;2022-12-18T13:07:19;0.10;99.90
42479;DHT22;28110;47.080;9.476;2022-12-18T13:13:06;-0.20;99.90
42479;DHT22;28110;47.080;9.476;2022-12-18T13:15:43;-0.30;99.90
42479;DHT22;28110;47.080;9.476;2022-12-18T13:20:40;-0.30;99.90
42479;DHT22;28110;47.080;9.476;2022-12-18T13:25:59;-0.30;99.90
42479;DHT22;28110;47.080;9.476;2022-12-18T13:34:19;-0.70;99.90
42479;DHT22;28110;47.080;9.476;2022-12-18T13:36:45;-0.80;99.90
42479;DHT22;28110;47.080;9.476;2022-12-18T13:41:47;-1.00;99.90
42479;DHT22;28110;47.080;9.476;2022-12-18T13:46:50;-0.90;99.90
42479;DHT22;28110;47.080;9.476;2022-12-18T13:49:26;-1.00;99.90
42479;DHT22;28110;47.080;9.476;2022-12-18T13:51:55;-1.10;99.90
42479;DHT22;28110;47.080;9.476;2022-12-18T13:54:37;-1.40;99.90
42479;DHT22;28110;47.080;9.476;2022-12-18T13:57:05;-1.40;99.90
42479;DHT22;28110;47.080;9.476;2022-12-18T13:59:39;-1.30;99.90
42479;DHT22;28110;47.080;9.476;2022-12-18T14:02:26;-1.40;99.90
42479;DHT22;28110;47.080;9.476;2022-12-18T14:04:52;-1.40;99.90
42479;DHT22;28110;47.080;9.476;2022-12-18T14:07:24;-1.40;99.90
42479;DHT22;28110;47.080;9.476;2022-12-18T14:09:52;-1.60;99.90
42479;DHT22;28110;47.080;9.476;2022-12-18T14:12:22;-1.60;99.90
42479;DHT22;28110;47.080;9.476;2022-12-18T14:15:52;-1.60;99.90
42479;DHT22;28110;47.080;9.476;2022-12-18T14:21:00;-1.60;99.90
42479;DHT22;28110;47.080;9.476;2022-12-18T14:25:54;-1.60;99.90
42479;DHT22;28110;47.080;9.476;2022-12-18T14:28:19;-1.60;99.90
42479;DHT22;28110;47.080;9.476;2022-12-18T14:30:47;-1.70;99.90
42479;DHT22;28110;47.080;9.476;2022-12-18T14:33:17;-1.70;99.90
42479;DHT22;28110;47.080;9.476;2022-12-18T14:36:00;-1.70;99.90
42479;DHT22;28110;47.080;9.476;2022-12-18T14:38:33;-1.80;99.90
42479;DHT22;28110;47.080;9.476;2022-12-18T14:41:09;-1.80;99.90
42479;DHT22;28110;47.080;9.476;2022-12-18T14:43:37;-1.80;99.90
42479;DHT22;28110;47.080;9.476;2022-12-18T14:46:05;-1.80;99.90
42479;DHT22;28110;47.080;9.476;2022-12-18T14:48:41;-1.80;99.90
42479;DHT22;28110;47.080;9.476;2022-12-18T14:51:22;-1.70;99.90
42479;DHT22;28110;47.080;9.476;2022-12-18T14:56:30;-1.70;99.90
42479;DHT22;28110;47.080;9.476;2022-12-18T14:59:21;-1.70;99.90
42479;DHT22;28110;47.080;9.476;2022-12-18T15:01:58;-1.70;99.90
42479;DHT22;28110;47.080;9.476;2022-12-18T15:04:28;-1.70;99.90
42479;DHT22;28110;47.080;9.476;2022-12-18T15:07:22;-1.70;99.90
42479;DHT22;28110;47.080;9.476;2022-12-18T15:10:14;-1.70;99.90
42479;DHT22;28110;47.080;9.476;2022-12-18T15:12:45;-1.70;99.90
42479;DHT22;28110;47.080;9.476;2022-12-18T15:17:59;-1.60;99.90
42479;DHT22;28110;47.080;9.476;2022-12-18T15:20:25;-1.60;99.90
42479;DHT22;28110;47.080;9.476;2022-12-18T15:22:51;-1.70;99.90
42479;DHT22;28110;47.080;9.476;2022-12-18T15:25:31;-1.70;99.90
42479;DHT22;28110;47.080;9.476;2022-12-18T15:27:58;-1.80;99.90
42479;DHT22;28110;47.080;9.476;2022-12-18T15:30:24;-1.80;99.90
42479;DHT22;28110;47.080;9.476;2022-12-18T15:32:51;-1.90;99.90
42479;DHT22;28110;47.080;9.476;2022-12-18T15:35:23;-2.00;99.90
42479;DHT22;28110;47.080;9.476;2022-12-18T15:37:50;-2.00;99.90
42479;DHT22;28110;47.080;9.476;2022-12-18T15:40:26;-2.00;99.90
42479;DHT22;28110;47.080;9.476;2022-12-18T15:42:53;-2.00;99.90
42479;DHT22;28110;47.080;9.476;2022-12-18T15:45:38;-2.00;99.90
42479;DHT22;28110;47.080;9.476;2022-12-18T15:48:20;-2.00;99.90
42479;DHT22;28110;47.080;9.476;2022-12-18T15:50:46;-2.00;99.90
42479;DHT22;28110;47.080;9.476;2022-12-18T15:53:11;-2.00;99.90
42479;DHT22;28110;47.080;9.476;2022-12-18T15:55:37;-2.00;99.90
42479;DHT22;28110;47.080;9.476;2022-12-18T15:58:21;-2.00;99.90
42479;DHT22;28110;47.080;9.476;2022-12-18T16:00:47;-2.00;99.90
42479;DHT22;28110;47.080;9.476;2022-12-18T16:03:13;-2.10;99.90
42479;DHT22;28110;47.080;9.476;2022-12-18T16:05:38;-2.10;99.90
42479;DHT22;28110;47.080;9.476;2022-12-18T16:08:04;-2.20;99.90
42479;DHT22;28110;47.080;9.476;2022-12-18T16:10:29;-2.20;99.90
42479;DHT22;28110;47.080;9.476;2022-12-18T16:12:55;-2.20;99.90
42479;DHT22;28110;47.080;9.476;2022-12-18T16:15:20;-2.30;99.90
42479;DHT22;28110;47.080;9.476;2022-12-18T16:17:46;-2.40;99.90
42479;DHT22;28110;47.080;9.476;2022-12-18T16:20:17;-2.40;99.90
42479;DHT22;28110;47.080;9.476;2022-12-18T16:22:44;-2.40;99.90
42479;DHT22;28110;47.080;9.476;2022-12-18T16:25:20;-2.40;99.90
42479;DHT22;28110;47.080;9.476;2022-12-18T16:27:46;-2.50;99.90
42479;DHT22;28110;47.080;9.476;2022-12-18T16:30:18;-2.50;99.90
42479;DHT22;28110;47.080;9.476;2022-12-18T16:32:44;-2.60;99.90
42479;DHT22;28110;47.080;9.476;2022-12-18T16:35:12;-2.60;99.90
42479;DHT22;28110;47.080;9.476;2022-12-18T16:37:38;-2.60;99.90
42479;DHT22;28110;47.080;9.476;2022-12-18T16:40:05;-2.50;99.90
42479;DHT22;28110;47.080;9.476;2022-12-18T16:42:34;-2.50;99.90
42479;DHT22;28110;47.080;9.476;2022-12-18T16:45:00;-2.50;99.90
42479;DHT22;28110;47.080;9.476;2022-12-18T16:47:25;-2.50;99.90
42479;DHT22;28110;47.080;9.476;2022-12-18T16:49:51;-2.50;99.90
42479;DHT22;28110;47.080;9.476;2022-12-18T16:52:19;-2.50;99.90
42479;DHT22;28110;47.080;9.476;2022-12-18T16:54:44;-2.50;99.90
42479;DHT22;28110;47.080;9.476;2022-12-18T16:57:15;-2.50;99.90
42479;DHT22;28110;47.080;9.476;2022-12-18T16:59:41;-2.50;99.90
42479;DHT22;28110;47.080;9.476;2022-12-18T17:02:22;-2.60;99.90
42479;DHT22;28110;47.080;9.476;2022-12-18T17:04:49;-2.60;99.90
42479;DHT22;28110;47.080;9.476;2022-12-18T17:07:15;-2.60;99.90
42479;DHT22;28110;47.080;9.476;2022-12-18T17:09:41;-2.60;99.90
42479;DHT22;28110;47.080;9.476;2022-12-18T17:12:07;-2.60;99.90
42479;DHT22;28110;47.080;9.476;2022-12-18T17:14:33;-2.60;99.90
42479;DHT22;28110;47.080;9.476;2022-12-18T17:16:59;-2.70;99.90
42479;DHT22;28110;47.080;9.476;2022-12-18T17:19:26;-2.70;99.90
42479;DHT22;28110;47.080;9.476;2022-12-18T17:21:52;-2.70;99.90
42479;DHT22;28110;47.080;9.476;2022-12-18T17:24:18;-2.60;99.90
42479;DHT22;28110;47.080;9.476;2022-12-18T17:26:44;-2.60;99.90
42479;DHT22;28110;47.080;9.476;2022-12-18T17:29:16;-2.60;99.90
42479;DHT22;28110;47.080;9.476;2022-12-18T17:31:42;-2.60;99.90
42479;DHT22;28110;47.080;9.476;2022-12-18T17:34:09;-2.60;99.90
42479;DHT22;28110;47.080;9.476;2022-12-18T17:36:35;-2.60;99.90